createdAt,value
2018-05-25T00:00:01.464Z,14.1
2018-05-25T00:05:01.325Z,14.1
2018-05-25T00:10:01.492Z,14.1
2018-05-25T00:15:01.526Z,14.1
2018-05-25T00:20:01.436Z,14
2018-05-25T00:25:02.227Z,14.1
2018-05-25T00:30:01.965Z,14
2018-05-25T00:35:01.652Z,14
2018-05-25T00:40:02.310Z,14
2018-05-25T00:45:01.938Z,14
2018-05-25T00:50:01.903Z,14
2018-05-25T00:55:01.848Z,14
2018-05-25T01:00:02.223Z,14
2018-05-25T01:05:01.462Z,14
2018-05-25T01:10:01.413Z,14
2018-05-25T01:15:01.383Z,14
2018-05-25T01:20:01.526Z,14
2018-05-25T01:25:01.223Z,14
2018-05-25T01:30:01.373Z,14
2018-05-25T01:35:01.507Z,14
2018-05-25T01:40:01.213Z,13.9
2018-05-25T01:45:01.454Z,13.9
2018-05-25T01:50:01.729Z,14
2018-05-25T01:55:01.502Z,13.9
2018-05-25T02:00:02.059Z,13.8
2018-05-25T02:05:01.712Z,13.8
2018-05-25T02:10:01.729Z,13.8
2018-05-25T02:15:01.603Z,13.8
2018-05-25T02:20:02.451Z,13.8
2018-05-25T02:25:01.568Z,13.7
2018-05-25T02:30:01.893Z,13.7
2018-05-25T02:35:01.425Z,13.6
2018-05-25T02:40:01.409Z,13.6
2018-05-25T02:45:01.269Z,13.6
2018-05-25T02:50:01.956Z,13.5
2018-05-25T02:55:01.985Z,13.5
2018-05-25T03:00:02.199Z,13.5
2018-05-25T03:05:01.294Z,13.5
2018-05-25T03:10:02.017Z,13.4
2018-05-25T03:15:01.331Z,13.4
2018-05-25T03:20:01.672Z,13.4
2018-05-25T03:25:01.846Z,13.4
2018-05-25T03:30:02.135Z,13.4
2018-05-25T03:35:01.402Z,13.5
2018-05-25T03:40:01.753Z,13.5
2018-05-25T03:45:02.062Z,13.6
2018-05-25T03:50:01.913Z,13.7
2018-05-25T03:55:01.745Z,13.8
2018-05-25T04:00:01.981Z,13.8
2018-05-25T04:05:01.679Z,13.8
2018-05-25T04:10:02.141Z,13.9
2018-05-25T04:15:02.008Z,14.1
2018-05-25T04:20:01.932Z,14.1
2018-05-25T04:25:01.638Z,14.2
2018-05-25T04:30:02.764Z,14.6
2018-05-25T04:35:01.881Z,15.8
2018-05-25T04:40:02.081Z,16.3
2018-05-25T04:45:01.497Z,17.2
2018-05-25T04:50:01.613Z,17.3
2018-05-25T04:55:01.406Z,17
2018-05-25T05:00:01.962Z,16.7
2018-05-25T05:05:01.948Z,16.6
2018-05-25T05:10:01.418Z,16.6
2018-05-25T05:15:01.885Z,16.4
2018-05-25T05:20:02.478Z,16.3
2018-05-25T05:25:01.739Z,16.2
2018-05-25T05:30:01.215Z,16.4
2018-05-25T05:35:01.389Z,16.4
2018-05-25T05:40:01.542Z,16.7
2018-05-25T05:45:01.470Z,16.8
2018-05-25T05:50:01.385Z,16.9
2018-05-25T05:55:02.220Z,17.1
2018-05-25T06:00:01.554Z,17.3
2018-05-25T06:05:01.302Z,17.5
2018-05-25T06:10:01.680Z,17.7
2018-05-25T06:15:01.561Z,17.8
2018-05-25T06:20:01.867Z,17.9
2018-05-25T06:25:01.661Z,17.9
2018-05-25T06:30:01.574Z,18.2
2018-05-25T06:35:01.653Z,18.3
2018-05-25T06:40:01.685Z,18.6
2018-05-25T06:45:02.568Z,18.6
2018-05-25T06:50:01.749Z,18.7
2018-05-25T06:55:02.028Z,18.8
2018-05-25T07:00:01.710Z,18.8
2018-05-25T07:05:02.189Z,19.1
2018-05-25T07:10:01.841Z,19.2
2018-05-25T07:15:01.624Z,19.2
2018-05-25T07:20:01.461Z,19.6
2018-05-25T07:25:01.865Z,19.7
2018-05-25T07:30:01.303Z,19.7
2018-05-25T07:35:02.043Z,20
2018-05-25T07:40:01.610Z,20.1
2018-05-25T07:45:01.898Z,20.4
2018-05-25T07:50:01.787Z,20.5
2018-05-25T07:55:02.116Z,20.5
2018-05-25T08:00:01.828Z,20.4
2018-05-25T08:05:01.543Z,20.9
2018-05-25T08:10:01.689Z,21.2
2018-05-25T08:15:02.291Z,21.3
2018-05-25T08:20:01.387Z,21.6
2018-05-25T08:25:01.444Z,21.6
2018-05-25T08:30:02.423Z,21.8
2018-05-25T08:35:01.227Z,21.8
2018-05-25T08:40:02.160Z,22
2018-05-25T08:45:01.586Z,22.3
2018-05-25T08:50:01.551Z,22.6
2018-05-25T08:55:01.819Z,22.6
2018-05-25T09:00:01.410Z,22.7
2018-05-25T09:05:01.930Z,22.9
2018-05-25T09:10:01.857Z,22.9
2018-05-25T09:15:01.859Z,22.9
2018-05-25T09:20:01.891Z,23.2
2018-05-25T09:25:01.652Z,23.5
2018-05-25T09:30:01.968Z,23.8
2018-05-25T09:35:01.746Z,24
2018-05-25T09:40:01.383Z,24.1
2018-05-25T09:45:02.026Z,24.1
2018-05-25T09:50:01.975Z,24.3
2018-05-25T09:55:01.526Z,24.7
2018-05-25T10:00:01.339Z,24.9
2018-05-25T10:05:01.844Z,25
2018-05-25T10:10:01.730Z,25.1
2018-05-25T10:15:01.907Z,25.1
2018-05-25T10:20:01.714Z,25
2018-05-25T10:25:01.392Z,24.7
2018-05-25T10:30:01.852Z,25.1
2018-05-25T10:35:01.830Z,25.2
2018-05-25T10:40:01.594Z,25.2
2018-05-25T10:45:02.123Z,25.4
2018-05-25T10:50:02.021Z,25.7
2018-05-25T10:55:01.701Z,26.1
2018-05-25T11:00:01.254Z,25.9
2018-05-25T11:05:02.065Z,25.8
2018-05-25T11:10:01.596Z,25.7
2018-05-25T11:15:01.853Z,25.5
2018-05-25T11:20:01.645Z,25.6
2018-05-25T11:25:01.999Z,25.8
2018-05-25T11:30:01.395Z,26.3
2018-05-25T11:35:01.916Z,26.8
2018-05-25T11:40:01.982Z,26.9
2018-05-25T11:45:01.327Z,26.9
2018-05-25T11:50:02.020Z,26.6
2018-05-25T11:55:01.536Z,26.5
2018-05-25T12:00:01.399Z,26.1
2018-05-25T12:05:01.689Z,26.5
2018-05-25T12:10:02.032Z,26.7
2018-05-25T12:15:02.111Z,27
2018-05-25T12:20:01.474Z,27
2018-05-25T12:25:02.632Z,27.3
2018-05-25T12:30:01.190Z,27.4
2018-05-25T12:35:01.474Z,27.4
2018-05-25T12:40:01.323Z,27.6
2018-05-25T12:45:01.612Z,27.9
2018-05-25T12:50:01.637Z,28.2
2018-05-25T12:55:01.980Z,28.1
2018-05-25T13:00:02.101Z,28.3
2018-05-25T13:05:02.125Z,28
2018-05-25T13:10:01.772Z,28
2018-05-25T13:15:02.297Z,27.8
2018-05-25T13:20:01.884Z,27.5
2018-05-25T13:25:01.829Z,27.8
2018-05-25T13:30:01.738Z,27.4
2018-05-25T13:35:02.106Z,27.2
2018-05-25T13:40:02.123Z,26.9
2018-05-25T13:45:01.485Z,26.1
2018-05-25T13:50:01.616Z,26.1
2018-05-25T13:55:01.948Z,26.4
2018-05-25T14:00:01.851Z,26.3
2018-05-25T14:05:01.843Z,26.2
2018-05-25T14:10:01.834Z,26
2018-05-25T14:15:01.944Z,25.8
2018-05-25T14:20:01.739Z,25.7
2018-05-25T14:25:02.056Z,25.8
2018-05-25T14:30:01.489Z,25.6
2018-05-25T14:35:01.528Z,25.2
2018-05-25T14:40:01.562Z,25.6
2018-05-25T14:45:02.126Z,25
2018-05-25T14:50:01.862Z,24.7
2018-05-25T14:55:01.747Z,24.6
2018-05-25T15:00:01.647Z,24.5
2018-05-25T15:05:01.229Z,24.6
2018-05-25T15:10:01.613Z,24.4
2018-05-25T15:15:01.658Z,24.1
2018-05-25T15:20:01.694Z,24.3
2018-05-25T15:25:01.602Z,24.5
2018-05-25T15:30:01.929Z,24.3
2018-05-25T15:35:01.371Z,24.4
2018-05-25T15:40:01.691Z,24.4
2018-05-25T15:45:02.138Z,24.5
2018-05-25T15:50:01.668Z,24.3
2018-05-25T15:55:02.113Z,23.6
2018-05-25T16:00:01.755Z,23.2
2018-05-25T16:05:01.340Z,23.3
2018-05-25T16:10:01.300Z,23.4
2018-05-25T16:15:01.886Z,23.4
2018-05-25T16:20:01.637Z,23.3
2018-05-25T16:25:01.277Z,22.6
2018-05-25T16:30:02.298Z,22.8
2018-05-25T16:35:02.184Z,22.7
2018-05-25T16:40:02.022Z,22.5
2018-05-25T16:45:01.664Z,22.3
2018-05-25T16:50:01.998Z,21.6
2018-05-25T16:55:01.309Z,21.2
2018-05-25T17:00:01.416Z,20.9
2018-05-25T17:05:02.559Z,20.7
2018-05-25T17:10:01.843Z,20.9
2018-05-25T17:15:01.342Z,20.9
2018-05-25T17:20:01.643Z,20.8
2018-05-25T17:25:01.567Z,20.6
2018-05-25T17:30:02.170Z,20.4
2018-05-25T17:35:01.658Z,20.1
2018-05-25T17:40:02.310Z,20
2018-05-25T17:45:01.244Z,20
2018-05-25T17:50:01.414Z,16.7
2018-05-25T17:55:02.021Z,15.8
2018-05-25T18:00:02.211Z,15.8
2018-05-25T18:05:02.007Z,15.9
2018-05-25T18:10:02.458Z,16.1
2018-05-25T18:15:01.724Z,16.1
2018-05-25T18:20:02.429Z,16.2
2018-05-25T18:25:01.986Z,16.2
2018-05-25T18:30:01.812Z,16.3
2018-05-25T18:35:01.444Z,16.2
2018-05-25T18:40:01.881Z,16.2
2018-05-25T18:45:01.476Z,16.1
2018-05-25T18:50:01.915Z,16.1
2018-05-25T18:55:01.770Z,15.6
2018-05-25T19:00:01.619Z,14.5
2018-05-25T19:05:01.548Z,14.3
2018-05-25T19:10:01.593Z,14.1
2018-05-25T19:15:01.681Z,13.9
2018-05-25T19:20:02.858Z,13.8
2018-05-25T19:25:01.423Z,13.5
2018-05-25T19:30:01.943Z,13.4
2018-05-25T19:35:01.737Z,13.3
2018-05-25T19:40:02.201Z,13.3
2018-05-25T19:45:01.466Z,13.4
2018-05-25T19:50:01.856Z,13.4
2018-05-25T19:55:02.342Z,13.5
2018-05-25T20:00:01.404Z,13.5
2018-05-25T20:05:01.847Z,13.5
2018-05-25T20:10:02.105Z,13.4
2018-05-25T20:15:02.352Z,13.4
2018-05-25T20:20:01.192Z,13.4
2018-05-25T20:25:01.617Z,13.4
2018-05-25T20:30:01.283Z,13.4
2018-05-25T20:35:01.999Z,13.4
2018-05-25T20:40:01.391Z,13.3
2018-05-25T20:45:02.033Z,13.4
2018-05-25T20:50:01.965Z,13.4
2018-05-25T20:55:01.410Z,13.4
2018-05-25T21:00:01.311Z,13.3
2018-05-25T21:05:01.601Z,13.3
2018-05-25T21:10:01.623Z,13.2
2018-05-25T21:15:01.625Z,13.2
2018-05-25T21:20:02.008Z,13
2018-05-25T21:25:01.359Z,12.9
2018-05-25T21:30:01.873Z,12.9
2018-05-25T21:35:02.056Z,12.8
2018-05-25T21:40:01.205Z,12.8
2018-05-25T21:45:01.943Z,12.8
2018-05-25T21:50:02.911Z,12.8
2018-05-25T21:55:01.778Z,12.8
2018-05-25T22:00:02.138Z,12.8
2018-05-25T22:05:02.477Z,12.8
2018-05-25T22:10:01.495Z,12.7
2018-05-25T22:15:01.664Z,12.7
2018-05-25T22:20:01.719Z,12.6
2018-05-25T22:25:01.825Z,12.6
2018-05-25T22:30:01.797Z,12.6
2018-05-25T22:35:01.303Z,12.7
2018-05-25T22:40:02.201Z,12.7
2018-05-25T22:45:01.544Z,12.7
2018-05-25T22:50:01.688Z,12.7
2018-05-25T22:55:01.839Z,12.7
2018-05-25T23:00:02.281Z,12.7
2018-05-25T23:05:01.928Z,12.6
2018-05-25T23:10:01.756Z,12.7
2018-05-25T23:15:01.793Z,12.8
2018-05-25T23:20:01.781Z,12.8
2018-05-25T23:25:01.738Z,12.7
2018-05-25T23:30:01.781Z,12.7
2018-05-25T23:35:01.544Z,12.7
2018-05-25T23:40:01.437Z,12.7
2018-05-25T23:45:01.702Z,12.6
2018-05-25T23:50:02.081Z,12.6
2018-05-25T23:55:01.744Z,12.7
